createdAt,value
2023-01-31T00:01:27.806Z,3.43
2023-01-31T00:03:56.552Z,3.41
2023-01-31T00:06:26.462Z,3.41
2023-01-31T00:08:54.261Z,3.43
2023-01-31T00:11:24.768Z,3.46
2023-01-31T00:13:54.144Z,3.48
2023-01-31T00:16:22.056Z,3.46
2023-01-31T00:18:49.065Z,3.44
2023-01-31T00:21:21.770Z,3.40
2023-01-31T00:23:50.011Z,3.36
2023-01-31T00:26:29.971Z,3.31
2023-01-31T00:28:58.086Z,3.28
2023-01-31T00:31:28.873Z,3.25
2023-01-31T00:33:56.595Z,3.20
2023-01-31T00:36:26.157Z,3.16
2023-01-31T00:38:54.747Z,3.12
2023-01-31T00:41:23.711Z,3.07
2023-01-31T00:43:50.806Z,3.03
2023-01-31T00:46:20.308Z,3.01
2023-01-31T00:48:47.110Z,2.99
2023-01-31T00:51:13.825Z,2.95
2023-01-31T00:53:40.754Z,2.94
2023-01-31T00:56:15.755Z,2.91
2023-01-31T00:58:42.495Z,2.87
2023-01-31T01:01:18.173Z,2.82
2023-01-31T01:03:45.842Z,2.80
2023-01-31T01:06:15.031Z,2.77
2023-01-31T01:08:43.001Z,2.73
2023-01-31T01:11:18.522Z,2.72
2023-01-31T01:13:45.733Z,2.69
2023-01-31T01:16:27.131Z,2.68
2023-01-31T01:18:55.293Z,2.67
2023-01-31T01:21:26.737Z,2.66
2023-01-31T01:23:55.501Z,2.65
2023-01-31T01:26:25.212Z,2.65
2023-01-31T01:28:52.714Z,2.64
2023-01-31T01:31:22.389Z,2.63
2023-01-31T01:33:49.501Z,2.64
2023-01-31T01:36:21.824Z,2.61
2023-01-31T01:38:48.445Z,2.60
2023-01-31T01:41:15.592Z,2.58
2023-01-31T01:43:46.528Z,2.56
2023-01-31T01:46:42.655Z,2.55
2023-01-31T01:49:12.118Z,2.53
2023-01-31T01:51:40.621Z,2.53
2023-01-31T01:54:13.818Z,2.51
2023-01-31T01:56:45.311Z,2.50
2023-01-31T01:59:28.928Z,2.52
2023-01-31T02:01:58.985Z,2.52
2023-01-31T02:04:30.524Z,2.52
2023-01-31T02:06:57.798Z,2.53
2023-01-31T02:10:18.036Z,2.56
2023-01-31T02:12:46.167Z,2.60
2023-01-31T02:15:13.065Z,2.65
2023-01-31T02:17:39.709Z,2.70
2023-01-31T02:20:29.405Z,2.73
2023-01-31T02:23:21.891Z,2.77
2023-01-31T02:26:28.009Z,2.78
2023-01-31T02:29:25.819Z,2.74
2023-01-31T02:32:11.830Z,2.71
2023-01-31T02:34:49.562Z,2.66
2023-01-31T02:37:35.682Z,2.63
2023-01-31T02:40:24.181Z,2.59
2023-01-31T02:42:55.443Z,2.60
2023-01-31T02:46:07.252Z,2.66
2023-01-31T02:49:07.448Z,2.74
2023-01-31T02:51:41.343Z,2.78
2023-01-31T02:54:44.728Z,2.84
2023-01-31T02:57:12.135Z,2.89
2023-01-31T02:59:39.936Z,2.92
2023-01-31T03:02:06.857Z,2.93
2023-01-31T03:04:36.820Z,2.94
2023-01-31T03:07:13.661Z,2.95
2023-01-31T03:10:00.297Z,2.97
2023-01-31T03:12:41.879Z,3.00
2023-01-31T03:16:04.362Z,3.04
2023-01-31T03:18:43.405Z,3.07
2023-01-31T03:21:37.582Z,3.10
2023-01-31T03:24:06.051Z,3.14
2023-01-31T03:26:34.699Z,3.17
2023-01-31T03:29:05.716Z,3.20
2023-01-31T03:31:42.823Z,3.24
2023-01-31T03:34:13.189Z,3.26
2023-01-31T03:36:48.495Z,3.30
2023-01-31T03:39:27.044Z,3.33
2023-01-31T03:42:15.405Z,3.36
2023-01-31T03:45:06.479Z,3.38
2023-01-31T03:47:41.092Z,3.39
2023-01-31T03:50:30.439Z,3.40
2023-01-31T03:53:06.083Z,3.43
2023-01-31T03:55:44.649Z,3.44
2023-01-31T03:58:14.252Z,3.46
2023-01-31T04:00:43.417Z,3.49
2023-01-31T04:03:27.758Z,3.50
2023-01-31T04:05:54.771Z,3.53
2023-01-31T04:08:21.382Z,3.55
2023-01-31T04:10:48.306Z,3.59
2023-01-31T04:13:16.136Z,3.61
2023-01-31T04:15:42.730Z,3.62
2023-01-31T04:18:09.416Z,3.64
2023-01-31T04:20:36.787Z,3.66
2023-01-31T04:23:04.123Z,3.69
2023-01-31T04:25:32.756Z,3.70
2023-01-31T04:28:01.098Z,3.71
2023-01-31T04:30:27.675Z,3.73
2023-01-31T04:32:54.470Z,3.74
2023-01-31T04:35:22.505Z,3.77
2023-01-31T04:37:50.375Z,3.78
2023-01-31T04:40:17.226Z,3.80
2023-01-31T04:42:44.067Z,3.80
2023-01-31T04:45:11.417Z,3.80
2023-01-31T04:47:38.012Z,3.82
2023-01-31T04:50:05.121Z,3.82
2023-01-31T04:52:31.805Z,3.82
2023-01-31T04:54:58.356Z,3.83
2023-01-31T04:57:25.842Z,3.82
2023-01-31T04:59:52.451Z,3.83
2023-01-31T05:02:19.192Z,3.84
2023-01-31T05:04:45.756Z,3.85
2023-01-31T05:07:12.321Z,3.85
2023-01-31T05:09:39.022Z,3.87
2023-01-31T05:12:07.935Z,3.88
2023-01-31T05:14:34.717Z,3.89
2023-01-31T05:17:01.339Z,3.90
2023-01-31T05:19:27.956Z,3.91
2023-01-31T05:22:00.760Z,3.91
2023-01-31T05:24:29.873Z,3.93
2023-01-31T05:27:01.587Z,3.94
2023-01-31T05:29:29.804Z,3.97
2023-01-31T05:31:59.356Z,3.98
2023-01-31T05:34:28.703Z,3.99
2023-01-31T05:36:55.586Z,4.01
2023-01-31T05:39:22.430Z,4.02
2023-01-31T05:41:51.206Z,4.03
2023-01-31T05:44:17.733Z,4.03
2023-01-31T05:46:44.600Z,4.05
2023-01-31T05:49:12.274Z,4.05
2023-01-31T05:51:39.655Z,4.08
2023-01-31T05:54:07.573Z,4.10
2023-01-31T05:56:34.912Z,4.11
2023-01-31T05:59:03.425Z,4.13
2023-01-31T06:01:31.040Z,4.15
2023-01-31T06:03:57.670Z,4.17
2023-01-31T06:06:24.405Z,4.19
2023-01-31T06:08:51.057Z,4.19
2023-01-31T06:11:18.636Z,4.18
2023-01-31T06:13:45.301Z,4.19
2023-01-31T06:16:12.653Z,4.22
2023-01-31T06:18:39.373Z,4.25
2023-01-31T06:21:06.507Z,4.26
2023-01-31T06:23:34.569Z,4.27
2023-01-31T06:26:01.332Z,4.31
2023-01-31T06:28:27.966Z,4.32
2023-01-31T06:30:54.970Z,4.35
2023-01-31T06:33:24.491Z,4.36
2023-01-31T06:36:01.499Z,4.38
2023-01-31T06:38:29.364Z,4.42
2023-01-31T06:40:56.767Z,4.43
2023-01-31T06:43:23.649Z,4.46
2023-01-31T06:45:50.442Z,4.48
2023-01-31T06:48:17.129Z,4.51
2023-01-31T06:50:44.934Z,4.56
2023-01-31T06:53:11.830Z,4.57
2023-01-31T06:55:39.271Z,4.59
2023-01-31T06:58:05.874Z,4.60
2023-01-31T07:00:32.954Z,4.62
2023-01-31T07:02:59.713Z,4.64
2023-01-31T07:05:26.418Z,4.68
2023-01-31T07:07:53.008Z,4.69
2023-01-31T07:10:19.869Z,4.73
2023-01-31T07:12:46.575Z,4.74
2023-01-31T07:15:13.301Z,4.76
2023-01-31T07:17:39.972Z,4.78
2023-01-31T07:20:07.313Z,4.80
2023-01-31T07:22:34.195Z,4.82
2023-01-31T07:25:01.173Z,4.82
2023-01-31T07:27:28.880Z,4.84
2023-01-31T07:29:55.676Z,4.84
2023-01-31T07:32:22.295Z,4.84
2023-01-31T07:34:49.911Z,4.85
2023-01-31T07:37:16.519Z,4.85
2023-01-31T07:39:43.140Z,4.87
2023-01-31T07:42:09.911Z,4.87
2023-01-31T07:44:36.699Z,4.90
2023-01-31T07:47:03.289Z,4.91
2023-01-31T07:49:31.016Z,4.93
2023-01-31T07:51:57.633Z,4.95
2023-01-31T07:54:24.552Z,4.95
2023-01-31T07:56:51.446Z,4.98
2023-01-31T07:59:18.635Z,4.99
2023-01-31T08:02:04.976Z,4.99
2023-01-31T08:04:32.087Z,5.00
2023-01-31T08:07:01.480Z,5.02
2023-01-31T08:09:28.184Z,5.04
2023-01-31T08:11:54.950Z,5.05
2023-01-31T08:14:25.666Z,5.05
2023-01-31T08:16:53.187Z,5.06
2023-01-31T08:19:19.746Z,5.08
2023-01-31T08:21:46.558Z,5.09
2023-01-31T08:24:13.159Z,5.10
2023-01-31T08:26:39.815Z,5.12
2023-01-31T08:29:06.957Z,5.14
2023-01-31T08:31:33.898Z,5.17
2023-01-31T08:34:00.603Z,5.21
2023-01-31T08:36:31.864Z,5.24
2023-01-31T08:38:59.370Z,5.26
2023-01-31T08:41:27.665Z,5.29
2023-01-31T08:43:57.919Z,5.32
2023-01-31T08:46:27.391Z,5.34
2023-01-31T08:48:54.634Z,5.35
2023-01-31T08:51:21.775Z,5.39
2023-01-31T08:53:48.743Z,5.41
2023-01-31T08:56:16.437Z,5.44
2023-01-31T08:58:44.882Z,5.45
2023-01-31T09:01:16.934Z,5.47
2023-01-31T09:03:45.944Z,5.49
2023-01-31T09:06:15.822Z,5.50
2023-01-31T09:08:42.809Z,5.54
2023-01-31T09:11:09.667Z,5.57
2023-01-31T09:13:36.357Z,5.58
2023-01-31T09:16:09.485Z,5.59
2023-01-31T09:18:38.625Z,5.62
2023-01-31T09:21:11.462Z,5.65
2023-01-31T09:23:42.006Z,5.67
2023-01-31T09:26:12.852Z,5.68
2023-01-31T09:28:42.757Z,5.70
2023-01-31T09:31:12.552Z,5.73
2023-01-31T09:33:39.550Z,5.74
2023-01-31T09:36:14.739Z,5.73
2023-01-31T09:38:41.507Z,5.75
2023-01-31T09:41:35.526Z,5.74
2023-01-31T09:44:07.408Z,5.75
2023-01-31T09:46:39.920Z,5.76
2023-01-31T09:49:15.053Z,5.77
2023-01-31T09:51:42.008Z,5.79
2023-01-31T09:54:18.587Z,5.79
2023-01-31T09:57:08.534Z,5.80
2023-01-31T10:00:10.783Z,5.81
2023-01-31T10:03:18.432Z,5.81
2023-01-31T10:05:50.030Z,5.82
2023-01-31T10:08:36.103Z,5.85
2023-01-31T10:11:11.557Z,5.86
2023-01-31T10:13:46.630Z,5.87
2023-01-31T10:16:39.111Z,5.90
2023-01-31T10:19:53.473Z,5.94
2023-01-31T10:22:34.674Z,5.96
2023-01-31T10:25:29.177Z,6.01
2023-01-31T10:28:01.777Z,6.06
2023-01-31T10:30:42.436Z,6.11
2023-01-31T10:33:30.372Z,6.15
2023-01-31T10:36:02.174Z,6.21
2023-01-31T10:38:42.085Z,6.25
2023-01-31T10:41:30.305Z,6.27
2023-01-31T10:44:02.630Z,6.28
2023-01-31T10:46:30.301Z,6.28
2023-01-31T10:48:57.493Z,6.28
2023-01-31T10:52:04.709Z,6.28
2023-01-31T10:54:58.925Z,6.29
2023-01-31T10:57:25.756Z,6.30
2023-01-31T10:59:54.274Z,6.30
2023-01-31T11:02:24.898Z,6.30
2023-01-31T11:04:56.845Z,6.30
2023-01-31T11:07:25.067Z,6.32
2023-01-31T11:09:54.400Z,6.33
2023-01-31T11:12:22.900Z,6.33
2023-01-31T11:15:06.821Z,6.34
2023-01-31T11:17:36.755Z,6.37
2023-01-31T11:20:06.700Z,6.37
2023-01-31T11:22:37.724Z,6.38
2023-01-31T11:25:05.185Z,6.36
2023-01-31T11:27:38.627Z,6.37
2023-01-31T11:30:20.340Z,6.38
2023-01-31T11:32:48.826Z,6.38
2023-01-31T11:35:15.470Z,6.38
2023-01-31T11:37:57.838Z,6.38
2023-01-31T11:40:27.735Z,6.40
2023-01-31T11:42:58.967Z,6.41
2023-01-31T11:45:30.590Z,6.38
2023-01-31T11:48:00.012Z,6.40
2023-01-31T11:50:37.540Z,6.41
2023-01-31T11:53:16.843Z,6.41
2023-01-31T11:55:44.455Z,6.42
2023-01-31T11:58:38.211Z,6.42
2023-01-31T12:01:12.848Z,6.42
2023-01-31T12:03:55.300Z,6.42
2023-01-31T12:06:37.110Z,6.42
2023-01-31T12:09:24.275Z,6.44
2023-01-31T12:12:05.910Z,6.42
2023-01-31T12:14:42.459Z,6.41
2023-01-31T12:17:18.030Z,6.40
2023-01-31T12:20:27.516Z,6.39
2023-01-31T12:23:09.301Z,6.38
2023-01-31T12:26:08.091Z,6.37
2023-01-31T12:28:55.003Z,6.38
2023-01-31T12:31:28.711Z,6.35
2023-01-31T12:34:17.362Z,6.35
2023-01-31T12:36:53.310Z,6.37
2023-01-31T12:39:26.938Z,6.38
2023-01-31T12:42:24.478Z,6.38
2023-01-31T12:45:17.519Z,6.42
2023-01-31T12:47:47.033Z,6.44
2023-01-31T12:50:31.623Z,6.45
2023-01-31T12:53:23.257Z,6.49
2023-01-31T12:56:00.924Z,6.52
2023-01-31T12:59:16.509Z,6.56
2023-01-31T13:01:57.859Z,6.61
2023-01-31T13:04:45.949Z,6.64
2023-01-31T13:07:29.858Z,6.67
2023-01-31T13:09:59.579Z,6.72
2023-01-31T13:12:30.522Z,6.76
2023-01-31T13:15:17.653Z,6.80
2023-01-31T13:17:48.281Z,6.86
2023-01-31T13:20:28.067Z,6.93
2023-01-31T13:23:06.653Z,6.97
2023-01-31T13:25:33.209Z,7.03
2023-01-31T13:28:06.080Z,7.11
2023-01-31T13:30:42.958Z,7.15
2023-01-31T13:33:18.584Z,7.20
2023-01-31T13:35:48.988Z,7.25
2023-01-31T13:38:20.109Z,7.30
2023-01-31T13:40:56.894Z,7.34
2023-01-31T13:43:23.496Z,7.37
2023-01-31T13:45:57.972Z,7.38
2023-01-31T13:48:36.285Z,7.41
2023-01-31T13:51:26.208Z,7.46
2023-01-31T13:54:08.624Z,7.50
2023-01-31T13:56:37.779Z,7.55
2023-01-31T13:59:09.214Z,7.59
2023-01-31T14:01:45.853Z,7.65
2023-01-31T14:04:13.573Z,7.70
2023-01-31T14:06:52.590Z,7.75
2023-01-31T14:09:30.894Z,7.82
2023-01-31T14:12:21.877Z,7.85
2023-01-31T14:14:51.523Z,7.88
2023-01-31T14:17:21.141Z,7.89
2023-01-31T14:19:47.761Z,7.90
2023-01-31T14:22:27.718Z,7.89
2023-01-31T14:24:56.822Z,7.92
2023-01-31T14:27:39.019Z,7.94
2023-01-31T14:30:05.783Z,7.97
2023-01-31T14:32:57.489Z,7.98
2023-01-31T14:36:02.879Z,7.97
2023-01-31T14:38:30.424Z,7.96
2023-01-31T14:41:08.934Z,7.95
2023-01-31T14:43:53.789Z,7.94
2023-01-31T14:46:35.457Z,7.94
2023-01-31T14:49:26.714Z,7.96
2023-01-31T14:52:14.005Z,7.99
2023-01-31T14:54:46.783Z,8.02
2023-01-31T14:57:21.644Z,8.06
2023-01-31T14:59:58.590Z,8.09
2023-01-31T15:02:31.807Z,8.10
2023-01-31T15:05:07.588Z,8.12
2023-01-31T15:07:34.490Z,8.12
2023-01-31T15:10:01.970Z,8.12
2023-01-31T15:12:55.710Z,8.10
2023-01-31T15:15:40.805Z,8.10
2023-01-31T15:18:26.535Z,8.09
2023-01-31T15:20:58.782Z,8.09
2023-01-31T15:23:28.994Z,8.10
2023-01-31T15:25:59.012Z,8.10
2023-01-31T15:28:33.771Z,8.13
2023-01-31T15:31:05.178Z,8.17
2023-01-31T15:33:38.161Z,8.21
2023-01-31T15:36:13.289Z,8.24
2023-01-31T15:38:44.013Z,8.29
2023-01-31T15:41:23.108Z,8.32
2023-01-31T15:43:55.137Z,8.39
2023-01-31T15:46:29.690Z,8.42
2023-01-31T15:48:57.620Z,8.42
2023-01-31T15:51:24.869Z,8.43
2023-01-31T15:54:05.835Z,8.42
2023-01-31T15:56:36.480Z,8.41
2023-01-31T15:59:11.253Z,8.42
2023-01-31T16:01:37.991Z,8.40
2023-01-31T16:04:05.342Z,8.40
2023-01-31T16:06:36.026Z,8.40
2023-01-31T16:09:05.634Z,8.40
2023-01-31T16:11:34.438Z,8.37
2023-01-31T16:14:05.159Z,8.36
2023-01-31T16:16:35.496Z,8.35
2023-01-31T16:19:06.019Z,8.30
2023-01-31T16:21:42.848Z,8.29
2023-01-31T16:24:16.839Z,8.27
2023-01-31T16:26:59.173Z,8.24
2023-01-31T16:29:48.167Z,8.21
2023-01-31T16:32:30.280Z,8.21
2023-01-31T16:35:01.791Z,8.14
2023-01-31T16:37:41.256Z,8.05
2023-01-31T16:40:27.740Z,8.00
2023-01-31T16:43:19.318Z,7.98
2023-01-31T16:45:53.359Z,8.00
2023-01-31T16:48:24.851Z,8.01
2023-01-31T16:50:54.108Z,8.02
2023-01-31T16:53:31.750Z,8.05
2023-01-31T16:56:13.390Z,8.08
2023-01-31T16:58:48.034Z,8.09
2023-01-31T17:01:17.943Z,8.07
2023-01-31T17:03:45.857Z,8.02
2023-01-31T17:06:20.271Z,8.00
2023-01-31T17:08:47.794Z,7.98
2023-01-31T17:11:34.096Z,7.95
2023-01-31T17:14:05.001Z,7.89
2023-01-31T17:16:31.596Z,7.84
2023-01-31T17:18:59.330Z,7.80
2023-01-31T17:21:26.837Z,7.78
2023-01-31T17:23:53.468Z,7.77
2023-01-31T17:26:23.026Z,7.73
2023-01-31T17:29:00.831Z,7.67
2023-01-31T17:31:29.709Z,7.62
2023-01-31T17:33:56.718Z,7.59
2023-01-31T17:36:23.967Z,7.54
2023-01-31T17:38:52.933Z,7.51
2023-01-31T17:41:21.435Z,7.44
2023-01-31T17:43:48.193Z,7.43
2023-01-31T17:46:17.278Z,7.44
2023-01-31T17:48:44.431Z,7.37
2023-01-31T17:51:11.922Z,7.35
2023-01-31T17:53:48.799Z,7.30
2023-01-31T17:56:17.135Z,7.25
2023-01-31T17:58:43.734Z,7.26
2023-01-31T18:01:14.024Z,7.19
2023-01-31T18:03:41.607Z,7.14
2023-01-31T18:06:09.808Z,7.10
2023-01-31T18:08:38.020Z,7.07
2023-01-31T18:11:09.345Z,7.05
2023-01-31T18:13:38.120Z,7.01
2023-01-31T18:16:06.343Z,6.99
2023-01-31T18:18:33.071Z,6.94
2023-01-31T18:20:59.833Z,6.88
2023-01-31T18:23:26.472Z,6.88
2023-01-31T18:25:53.306Z,6.88
2023-01-31T18:28:19.876Z,6.83
2023-01-31T18:30:46.759Z,6.79
2023-01-31T18:33:13.345Z,6.74
2023-01-31T18:35:39.921Z,6.73
2023-01-31T18:38:06.873Z,6.73
2023-01-31T18:40:33.741Z,6.71
2023-01-31T18:43:00.416Z,6.69
2023-01-31T18:45:27.117Z,6.62
2023-01-31T18:47:53.768Z,6.59
2023-01-31T18:50:20.596Z,6.58
2023-01-31T18:52:47.399Z,6.57
2023-01-31T18:55:14.044Z,6.57
2023-01-31T18:57:42.641Z,6.61
2023-01-31T19:00:09.925Z,6.64
2023-01-31T19:02:36.617Z,6.61
2023-01-31T19:05:03.398Z,6.60
2023-01-31T19:07:32.565Z,6.58
2023-01-31T19:10:04.056Z,6.53
2023-01-31T19:12:30.676Z,6.53
2023-01-31T19:14:57.284Z,6.47
2023-01-31T19:17:23.879Z,6.49
2023-01-31T19:19:50.496Z,6.47
2023-01-31T19:22:17.667Z,6.44
2023-01-31T19:24:44.910Z,6.41
2023-01-31T19:27:11.639Z,6.38
2023-01-31T19:29:39.815Z,6.34
2023-01-31T19:32:06.703Z,6.29
2023-01-31T19:34:33.496Z,6.27
2023-01-31T19:37:01.268Z,6.26
2023-01-31T19:39:28.007Z,6.26
2023-01-31T19:41:54.837Z,6.22
2023-01-31T19:44:21.720Z,6.21
2023-01-31T19:46:52.149Z,6.17
2023-01-31T19:49:19.060Z,6.14
2023-01-31T19:51:45.773Z,6.14
2023-01-31T19:54:17.520Z,6.11
2023-01-31T19:56:44.319Z,6.08
2023-01-31T19:59:11.874Z,6.04
2023-01-31T20:01:38.723Z,6.00
2023-01-31T20:04:05.374Z,5.99
2023-01-31T20:06:33.676Z,5.99
2023-01-31T20:09:04.860Z,5.99
2023-01-31T20:11:32.726Z,6.00
2023-01-31T20:14:00.470Z,5.99
2023-01-31T20:16:27.317Z,6.00
2023-01-31T20:18:56.989Z,5.98
2023-01-31T20:21:23.917Z,5.95
2023-01-31T20:23:50.608Z,5.90
2023-01-31T20:26:19.545Z,5.89
2023-01-31T20:28:46.344Z,5.88
2023-01-31T20:31:14.799Z,5.87
2023-01-31T20:33:41.749Z,5.84
2023-01-31T20:36:08.758Z,5.82
2023-01-31T20:38:37.936Z,5.79
2023-01-31T20:41:07.335Z,5.75
2023-01-31T20:43:35.863Z,5.72
2023-01-31T20:46:03.253Z,5.67
2023-01-31T20:48:30.136Z,5.65
2023-01-31T20:50:57.961Z,5.62
2023-01-31T20:53:25.445Z,5.59
2023-01-31T20:56:02.680Z,5.56
2023-01-31T20:58:32.251Z,5.52
2023-01-31T21:01:00.214Z,5.52
2023-01-31T21:03:28.546Z,5.49
2023-01-31T21:05:59.392Z,5.45
2023-01-31T21:08:29.282Z,5.41
2023-01-31T21:10:57.836Z,5.38
2023-01-31T21:13:28.016Z,5.34
2023-01-31T21:15:57.591Z,5.30
2023-01-31T21:18:28.837Z,5.28
2023-01-31T21:20:56.201Z,5.24
2023-01-31T21:23:23.518Z,5.21
2023-01-31T21:25:50.470Z,5.22
2023-01-31T21:28:17.333Z,5.19
2023-01-31T21:30:44.769Z,5.20
2023-01-31T21:33:11.417Z,5.18
2023-01-31T21:35:37.988Z,5.18
2023-01-31T21:38:04.622Z,5.17
2023-01-31T21:40:31.277Z,5.15
2023-01-31T21:42:57.997Z,5.11
2023-01-31T21:45:40.219Z,5.06
2023-01-31T21:48:27.923Z,5.02
2023-01-31T21:50:55.600Z,4.99
2023-01-31T21:53:22.323Z,4.97
2023-01-31T21:55:48.992Z,4.96
2023-01-31T21:58:16.344Z,4.98
2023-01-31T22:00:44.160Z,4.98
2023-01-31T22:03:11.448Z,4.97
2023-01-31T22:05:38.440Z,4.94
2023-01-31T22:08:05.298Z,4.92
2023-01-31T22:10:32.192Z,4.91
2023-01-31T22:12:58.849Z,4.88
2023-01-31T22:15:25.821Z,4.87
2023-01-31T22:17:52.540Z,4.86
2023-01-31T22:20:19.570Z,4.85
2023-01-31T22:22:47.273Z,4.85
2023-01-31T22:25:13.980Z,4.84
2023-01-31T22:27:41.561Z,4.86
2023-01-31T22:30:16.768Z,4.86
2023-01-31T22:32:44.118Z,4.88
2023-01-31T22:35:11.738Z,4.87
2023-01-31T22:37:38.485Z,4.87
2023-01-31T22:40:05.404Z,4.90
2023-01-31T22:42:32.099Z,4.91
2023-01-31T22:44:58.689Z,4.88
2023-01-31T22:47:25.969Z,4.88
2023-01-31T22:49:52.620Z,4.89
2023-01-31T22:52:19.251Z,4.89
2023-01-31T22:54:45.871Z,4.89
2023-01-31T22:57:12.523Z,4.91
2023-01-31T22:59:39.107Z,4.90
2023-01-31T23:02:05.769Z,4.89
2023-01-31T23:04:32.547Z,4.89
2023-01-31T23:06:59.153Z,4.90
2023-01-31T23:09:25.813Z,4.90
2023-01-31T23:11:53.454Z,4.90
2023-01-31T23:14:20.200Z,4.88
2023-01-31T23:17:05.138Z,4.87
2023-01-31T23:19:31.825Z,4.86
2023-01-31T23:21:58.744Z,4.86
2023-01-31T23:24:25.347Z,4.87
2023-01-31T23:26:54.435Z,4.86
2023-01-31T23:29:21.209Z,4.86
2023-01-31T23:31:47.946Z,4.84
2023-01-31T23:34:14.854Z,4.87
2023-01-31T23:36:42.431Z,4.87
2023-01-31T23:39:10.007Z,4.88
2023-01-31T23:41:36.674Z,4.91
2023-01-31T23:44:03.746Z,4.92
2023-01-31T23:46:30.908Z,4.94
2023-01-31T23:48:57.580Z,4.97
2023-01-31T23:51:26.816Z,4.99
2023-01-31T23:53:53.518Z,5.01
2023-01-31T23:56:20.337Z,5.02
2023-01-31T23:58:47.267Z,5.03
